Time;durP1;ratioP1;P1;durP2;ratioP2;P2;SDS_P1;SDS_P2;PMS_P1;PMS_P2;Temp;Humidity;BMP_temperature;BMP_pressure;BME280_temperature;BME280_humidity;BME280_pressure;Samples;Min_cycle;Max_cycle;Signal;HPM_P1;HPM_P2
2023/11/29 00:01:53;;;;;;;;;;;;;;;28.38;47.10;100869.03;5040888;28;66483;-33
2023/11/29 00:04:23;;;;;;;;;;;;;;;28.41;47.61;100871.31;5040364;28;70819;-32
2023/11/29 00:06:52;;;;;;;;;;;;;;;28.43;48.71;100868.44;5037789;28;67061;-33
2023/11/29 00:09:22;;;;;;;;;;;;;;;28.47;49.59;100875.94;5041108;28;69412;-33
2023/11/29 00:11:51;;;;;;;;;;;;;;;28.51;49.87;100882.56;5040334;28;66989;-32
2023/11/29 00:14:21;;;;;;;;;;;;;;;28.56;50.26;100886.56;5021423;28;69069;-35
2023/11/29 00:16:51;;;;;;;;;;;;;;;28.60;50.59;100890.50;5039078;28;66388;-32
2023/11/29 00:19:27;;;;;;;;;;;;;;;28.63;50.87;100895.47;5039786;28;71650;-33
2023/11/29 00:21:56;;;;;;;;;;;;;;;28.65;51.58;100891.53;5038859;28;65743;-34
2023/11/29 00:24:26;;;;;;;;;;;;;;;28.68;51.38;100898.41;5038402;28;70589;-32
2023/11/29 00:26:55;;;;;;;;;;;;;;;28.70;51.39;100902.56;5037347;28;67176;-33
2023/11/29 00:29:50;;;;;;;;;;;;;;;28.69;55.63;100894.66;5035928;28;70600;-33
2023/11/29 00:32:19;;;;;;;;;;;;;;;28.74;52.34;100902.97;5036705;28;66939;-33
2023/11/29 00:34:49;;;;;;;;;;;;;;;28.75;52.06;100904.63;5039515;28;69509;-34
2023/11/29 00:37:19;;;;;;;;;;;;;;;28.77;52.54;100907.94;5037862;28;66429;-35
2023/11/29 00:39:48;;;;;;;;;;;;;;;28.80;52.55;100912.94;5020906;28;71131;-33
2023/11/29 00:42:18;;;;;;;;;;;;;;;28.82;52.52;100924.38;5051245;28;65616;-33
2023/11/29 00:44:47;;;;;;;;;;;;;;;28.84;53.20;100924.19;5036568;28;70458;-33
2023/11/29 00:47:17;;;;;;;;;;;;;;;28.85;52.57;100918.56;5017342;28;66999;-32
2023/11/29 00:49:47;;;;;;;;;;;;;;;28.89;52.74;100917.13;5018916;28;70376;-33
2023/11/29 00:52:17;;;;;;;;;;;;;;;28.91;53.32;100933.94;5029258;28;66599;-32
2023/11/29 00:54:46;;;;;;;;;;;;;;;28.93;53.04;100933.72;5010923;28;70602;-33
2023/11/29 00:57:16;;;;;;;;;;;;;;;28.94;53.06;100933.50;5018755;28;66189;-33
2023/11/29 00:59:46;;;;;;;;;;;;;;;28.97;53.29;100945.78;5016424;28;69779;-33
2023/11/29 01:02:16;;;;;;;;;;;;;;;29.00;53.35;100949.94;5038234;28;66692;-32
2023/11/29 01:04:46;;;;;;;;;;;;;;;29.01;54.07;100954.31;5041101;28;70200;-34
2023/11/29 01:07:16;;;;;;;;;;;;;;;29.03;53.51;100954.91;5040421;28;66081;-33
2023/11/29 01:09:47;;;;;;;;;;;;;;;29.03;54.04;100950.41;5040265;28;70304;-33
2023/11/29 01:12:16;;;;;;;;;;;;;;;29.06;54.22;100959.94;5038574;28;66330;-33
2023/11/29 01:14:47;;;;;;;;;;;;;;;29.08;54.03;100957.88;5039085;28;70466;-33
2023/11/29 01:17:17;;;;;;;;;;;;;;;29.09;53.97;100968.47;5038989;28;65414;-33
2023/11/29 01:19:46;;;;;;;;;;;;;;;29.10;54.22;100963.91;5021714;28;70072;-33
2023/11/29 01:22:16;;;;;;;;;;;;;;;29.12;54.37;100975.34;5037791;28;66497;-34
2023/11/29 01:24:46;;;;;;;;;;;;;;;29.14;54.33;100973.25;5039193;28;69451;-33
2023/11/29 01:27:16;;;;;;;;;;;;;;;29.15;54.54;100972.22;5039987;28;66976;-33
2023/11/29 01:29:46;;;;;;;;;;;;;;;29.17;54.17;100972.88;5038914;28;69980;-33
2023/11/29 01:32:15;;;;;;;;;;;;;;;29.19;54.79;100976.16;5035920;28;66237;-33
2023/11/29 01:34:45;;;;;;;;;;;;;;;29.20;54.38;100975.16;5039249;28;68992;-33
2023/11/29 01:37:14;;;;;;;;;;;;;;;29.23;54.47;100982.84;5038826;28;66161;-33
2023/11/29 01:39:46;;;;;;;;;;;;;;;29.24;54.60;100973.69;5038358;28;70861;-33
2023/11/29 01:42:16;;;;;;;;;;;;;;;29.25;55.21;100988.84;5039469;28;66732;-33
2023/11/29 01:44:47;;;;;;;;;;;;;;;29.27;54.57;100989.47;5039592;28;70660;-33
2023/11/29 01:47:16;;;;;;;;;;;;;;;29.29;55.09;100989.28;5040854;28;65430;-33
2023/11/29 01:49:46;;;;;;;;;;;;;;;29.29;54.83;100992.81;5040600;28;69612;-33
2023/11/29 01:52:16;;;;;;;;;;;;;;;29.32;55.03;100992.38;5038878;28;67046;-33
2023/11/29 01:54:46;;;;;;;;;;;;;;;29.33;54.85;100991.34;5039369;28;70410;-33
2023/11/29 01:57:15;;;;;;;;;;;;;;;29.35;55.21;100997.38;5040202;28;65522;-32
2023/11/29 01:59:45;;;;;;;;;;;;;;;29.37;55.07;101000.72;5056284;28;70595;-34
2023/11/29 02:02:14;;;;;;;;;;;;;;;29.39;55.64;101003.19;5039738;28;66046;-33
2023/11/29 02:04:45;;;;;;;;;;;;;;;29.40;55.17;100997.59;5039061;28;68126;-33
2023/11/29 02:07:15;;;;;;;;;;;;;;;29.42;55.57;101002.81;5054602;28;66963;-32
2023/11/29 02:09:44;;;;;;;;;;;;;;;29.44;55.38;101000.69;5039241;28;70402;-32
2023/11/29 02:12:14;;;;;;;;;;;;;;;29.46;56.02;100998.63;5038963;28;66021;-32
2023/11/29 02:14:44;;;;;;;;;;;;;;;29.48;55.57;101003.84;5013416;28;69944;-34
2023/11/29 02:17:14;;;;;;;;;;;;;;;29.50;55.63;101001.75;5038374;28;66303;-33
2023/11/29 02:19:43;;;;;;;;;;;;;;;29.51;55.61;101000.72;5039406;28;69986;-33
2023/11/29 02:22:13;;;;;;;;;;;;;;;29.53;56.16;100993.22;5039548;28;65977;-32
2023/11/29 02:24:46;;;;;;;;;;;;;;;29.54;55.65;101003.84;5055742;28;69517;-33
2023/11/29 02:27:16;;;;;;;;;;;;;;;29.57;55.70;100994.47;5041342;28;66867;-33
2023/11/29 02:29:46;;;;;;;;;;;;;;;29.59;56.16;101003.22;5038206;28;71174;-33
2023/11/29 02:32:15;;;;;;;;;;;;;;;29.60;56.30;100989.47;5040956;28;65969;-32
2023/11/29 02:34:45;;;;;;;;;;;;;;;29.62;55.75;100992.81;5038402;28;69399;-32
2023/11/29 02:37:15;;;;;;;;;;;;;;;29.65;55.81;100991.59;5038142;28;66495;-32
2023/11/29 02:39:44;;;;;;;;;;;;;;;29.67;55.87;100992.22;5036877;28;69813;-33
2023/11/29 02:42:14;;;;;;;;;;;;;;;29.69;56.07;101000.09;5031447;28;66604;-33
2023/11/29 02:44:43;;;;;;;;;;;;;;;29.71;56.10;100987.22;5020430;28;70658;-32
2023/11/29 02:47:13;;;;;;;;;;;;;;;29.73;56.21;100985.97;5040367;28;66884;-33
2023/11/29 02:49:42;;;;;;;;;;;;;;;29.74;56.31;100984.91;5020447;28;69326;-32
2023/11/29 02:52:14;;;;;;;;;;;;;;;29.77;56.06;100979.09;5038393;28;65927;-33
2023/11/29 02:54:44;;;;;;;;;;;;;;;29.78;56.71;100975.38;5054788;28;70667;-34
2023/11/29 02:57:13;;;;;;;;;;;;;;;29.80;56.12;100975.97;5055583;28;66021;-33
2023/11/29 02:59:45;;;;;;;;;;;;;;;29.83;56.58;100982.81;5027797;28;70585;-32
2023/11/29 03:02:15;;;;;;;;;;;;;;;29.84;56.29;100970.97;5040854;28;66669;-33
2023/11/29 03:04:45;;;;;;;;;;;;;;;29.87;56.81;100972.44;5037352;28;69812;-33
2023/11/29 03:07:14;;;;;;;;;;;;;;;29.89;56.46;100964.91;5037965;28;66972;-32
2023/11/29 03:09:44;;;;;;;;;;;;;;;29.90;56.40;100964.72;5052574;28;70612;-32
2023/11/29 03:12:14;;;;;;;;;;;;;;;29.92;56.34;100959.09;5044904;28;66778;-33
2023/11/29 03:14:45;;;;;;;;;;;;;;;29.94;56.67;100957.00;5022420;28;69502;-32
2023/11/29 03:17:14;;;;;;;;;;;;;;;29.97;56.38;100953.88;5038614;28;66389;-33
2023/11/29 03:19:44;;;;;;;;;;;;;;;30.00;56.64;100956.16;5020890;28;70535;-33
2023/11/29 03:22:13;;;;;;;;;;;;;;;30.02;56.21;100948.66;5035134;28;66142;-33
2023/11/29 03:24:45;;;;;;;;;;;;;;;30.05;56.49;100953.66;5016782;28;70160;-33
2023/11/29 03:27:21;;;;;;;;;;;;;;;30.06;56.23;100939.91;5034703;28;66567;-33
2023/11/29 03:29:50;;;;;;;;;;;;;;;30.09;56.45;100932.41;5018974;28;71250;-33
2023/11/29 03:32:20;;;;;;;;;;;;;;;30.12;56.17;100949.06;5053377;28;67089;-32
2023/11/29 03:34:49;;;;;;;;;;;;;;;30.14;56.62;100938.81;5019815;28;70543;-33
2023/11/29 03:37:19;;;;;;;;;;;;;;;30.17;56.59;100935.72;5028615;28;67121;-32
2023/11/29 03:39:49;;;;;;;;;;;;;;;30.19;56.20;100928.19;5040155;28;69356;-33
2023/11/29 03:42:18;;;;;;;;;;;;;;;30.23;56.15;100924.06;5020497;28;66520;-33
2023/11/29 03:44:48;;;;;;;;;;;;;;;30.24;55.92;100920.31;5038805;28;70946;-32
2023/11/29 03:47:17;;;;;;;;;;;;;;;30.25;56.04;100903.00;5040195;28;66998;-32
2023/11/29 03:49:47;;;;;;;;;;;;;;;30.31;56.41;100903.19;5041303;28;70655;-33
2023/11/29 03:52:19;;;;;;;;;;;;;;;30.33;56.40;100901.94;5036299;28;66788;-33
2023/11/29 03:54:48;;;;;;;;;;;;;;;30.35;56.30;100897.16;5041063;28;70579;-33
2023/11/29 03:57:19;;;;;;;;;;;;;;;30.37;55.95;100892.34;5024874;28;66252;-33
2023/11/29 03:59:49;;;;;;;;;;;;;;;30.41;56.00;100896.28;5042243;28;69728;-33
2023/11/29 04:02:19;;;;;;;;;;;;;;;30.44;56.31;100895.00;5023493;28;66533;-33
2023/11/29 04:04:49;;;;;;;;;;;;;;;30.46;55.96;100884.81;5041172;28;70549;-34
2023/11/29 04:07:19;;;;;;;;;;;;;;;30.47;56.21;100879.16;5040178;28;66686;-33
2023/11/29 04:09:48;;;;;;;;;;;;;;;30.52;55.69;100873.09;5041229;28;70330;-33
2023/11/29 04:12:30;;;;;;;;;;;;;;;30.55;55.56;100872.66;5039272;28;66027;-33
2023/11/29 04:15:00;;;;;;;;;;;;;;;30.57;55.74;100873.28;5041226;28;70598;-33
2023/11/29 04:17:29;;;;;;;;;;;;;;;30.60;55.85;100870.13;5042029;28;66987;-38
2023/11/29 04:19:59;;;;;;;;;;;;;;;30.63;55.76;100858.88;5037313;28;70453;-33
2023/11/29 04:22:28;;;;;;;;;;;;;;;30.66;55.47;100858.44;5040454;28;66467;-33
2023/11/29 04:24:58;;;;;;;;;;;;;;;30.69;56.04;100851.75;5040214;28;70573;-33
2023/11/29 04:27:27;;;;;;;;;;;;;;;30.69;55.97;100847.16;5038469;28;67018;-33
2023/11/29 04:29:57;;;;;;;;;;;;;;;30.74;55.95;100841.09;5023355;28;69530;-32
2023/11/29 04:32:27;;;;;;;;;;;;;;;30.77;55.75;100847.94;5039369;28;66998;-33
2023/11/29 04:34:56;;;;;;;;;;;;;;;30.79;56.04;100835.03;5051180;28;69181;-35
2023/11/29 04:37:26;;;;;;;;;;;;;;;30.81;56.00;100830.22;5039341;28;66910;-33
2023/11/29 04:39:56;;;;;;;;;;;;;;;30.83;56.08;100830.84;5053208;28;70038;-34
2023/11/29 04:42:25;;;;;;;;;;;;;;;30.86;56.07;100830.38;5036312;28;66520;-34
2023/11/29 04:44:55;;;;;;;;;;;;;;;30.88;55.64;100822.88;5022279;28;70188;-33
2023/11/29 04:47:25;;;;;;;;;;;;;;;30.89;55.70;100814.53;5038072;28;65952;-33
2023/11/29 04:49:55;;;;;;;;;;;;;;;30.92;55.69;100813.25;5038039;28;69901;-34
2023/11/29 04:52:25;;;;;;;;;;;;;;;30.94;55.83;100817.41;5038196;28;66827;-33
2023/11/29 04:54:54;;;;;;;;;;;;;;;30.96;55.74;100803.66;5041403;28;70378;-33
2023/11/29 04:57:24;;;;;;;;;;;;;;;30.99;55.75;100792.34;5039458;28;65656;-33
2023/11/29 04:59:54;;;;;;;;;;;;;;;31.01;55.82;100789.41;5040915;28;70640;-33
2023/11/29 05:02:23;;;;;;;;;;;;;;;31.02;55.58;100786.50;5028135;28;66365;-35
2023/11/29 05:04:53;;;;;;;;;;;;;;;31.05;55.69;100791.47;5039270;28;69309;-34
2023/11/29 05:07:23;;;;;;;;;;;;;;;31.08;55.63;100790.19;5022600;28;65322;-33
2023/11/29 05:09:53;;;;;;;;;;;;;;;31.10;55.52;100778.06;5041059;28;70619;-34
2023/11/29 05:12:22;;;;;;;;;;;;;;;31.12;55.46;100775.13;5039193;28;66714;-32
2023/11/29 05:14:52;;;;;;;;;;;;;;;31.15;55.19;100774.69;5039854;28;69872;-33
2023/11/29 05:17:21;;;;;;;;;;;;;;;31.19;55.49;100780.50;5040124;28;65902;-36
2023/11/29 05:19:51;;;;;;;;;;;;;;;31.21;55.30;100772.97;5010034;28;70056;-36
2023/11/29 05:22:21;;;;;;;;;;;;;;;31.23;55.29;100776.25;5040364;28;66680;-35
2023/11/29 05:24:50;;;;;;;;;;;;;;;31.25;55.37;100769.56;5040664;28;70434;-33
2023/11/29 05:27:20;;;;;;;;;;;;;;;31.28;55.57;100771.00;5035979;28;66248;-33
2023/11/29 05:29:50;;;;;;;;;;;;;;;31.31;55.23;100762.41;5040784;28;70176;-33
2023/11/29 05:32:20;;;;;;;;;;;;;;;31.31;55.34;100751.56;5040813;28;66239;-33
2023/11/29 05:34:49;;;;;;;;;;;;;;;31.33;55.26;100749.47;5039402;28;70045;-33
2023/11/29 05:37:19;;;;;;;;;;;;;;;31.38;55.15;100757.78;5041374;28;66616;-33
2023/11/29 05:39:48;;;;;;;;;;;;;;;31.40;55.12;100752.97;5039851;28;70372;-34
2023/11/29 05:42:18;;;;;;;;;;;;;;;31.42;55.30;100748.13;5038826;28;65916;-34
2023/11/29 05:44:49;;;;;;;;;;;;;;;31.45;54.71;100742.25;5040247;28;70639;-34
2023/11/29 05:47:19;;;;;;;;;;;;;;;31.46;55.12;100730.38;5039558;28;67331;-33
2023/11/29 05:49:49;;;;;;;;;;;;;;;31.50;55.05;100738.88;5039502;28;70223;-33
2023/11/29 05:52:18;;;;;;;;;;;;;;;31.51;55.01;100730.53;5042670;28;66640;-34
2023/11/29 05:54:48;;;;;;;;;;;;;;;31.53;55.03;100733.81;5038078;28;68710;-33
2023/11/29 05:57:17;;;;;;;;;;;;;;;31.55;54.85;100723.56;5038424;28;66943;-33
2023/11/29 05:59:47;;;;;;;;;;;;;;;31.58;54.82;100720.41;5040234;28;70650;-35
2023/11/29 06:02:16;;;;;;;;;;;;;;;31.60;54.82;100717.47;5040901;28;66492;-33
2023/11/29 06:04:46;;;;;;;;;;;;;;;31.62;54.68;100715.34;5039189;28;69872;-36
2023/11/29 06:07:16;;;;;;;;;;;;;;;31.66;54.91;100716.56;5038734;28;65462;-33
2023/11/29 06:09:46;;;;;;;;;;;;;;;31.68;54.67;100711.72;5039887;28;70406;-32
2023/11/29 06:12:16;;;;;;;;;;;;;;;31.70;54.83;100701.47;5038649;28;66170;-33
2023/11/29 06:14:46;;;;;;;;;;;;;;;31.73;54.68;100700.19;5046941;28;70155;-32
2023/11/29 06:17:15;;;;;;;;;;;;;;;31.76;54.58;100699.72;5039977;28;66873;-33
2023/11/29 06:19:49;;;;;;;;;;;;;;;31.77;54.60;100695.97;5031710;28;70316;-32
2023/11/29 06:22:19;;;;;;;;;;;;;;;31.79;54.78;100688.44;5031407;28;65943;-33
2023/11/29 06:24:48;;;;;;;;;;;;;;;31.80;54.77;100696.31;5040070;28;70193;-32
2023/11/29 06:27:18;;;;;;;;;;;;;;;31.82;54.57;100693.38;5037762;28;66144;-32
2023/11/29 06:29:47;;;;;;;;;;;;;;;31.85;54.59;100698.34;5042427;28;68990;-33
2023/11/29 06:32:17;;;;;;;;;;;;;;;31.87;54.46;100690.78;5042828;28;66697;-33
2023/11/29 06:34:47;;;;;;;;;;;;;;;31.88;54.36;100686.22;5037055;28;71008;-32
2023/11/29 06:37:16;;;;;;;;;;;;;;;31.90;54.15;100684.06;5034020;28;66864;-32
2023/11/29 06:39:46;;;;;;;;;;;;;;;31.91;54.33;100675.75;5034009;28;69723;-32
2023/11/29 06:42:16;;;;;;;;;;;;;;;31.92;54.43;100666.53;5037726;28;66923;-33
2023/11/29 06:44:46;;;;;;;;;;;;;;;31.95;54.29;100674.22;5038706;28;70197;-34
2023/11/29 06:47:17;;;;;;;;;;;;;;;31.95;54.09;100671.50;5031344;28;66824;-32
2023/11/29 06:49:46;;;;;;;;;;;;;;;31.96;54.40;100673.16;5037379;28;71603;-32
2023/11/29 06:52:16;;;;;;;;;;;;;;;31.98;54.27;100679.19;5039897;28;66226;-33
2023/11/29 06:54:45;;;;;;;;;;;;;;;32.00;54.34;100674.34;5039494;28;70432;-33
2023/11/29 06:57:17;;;;;;;;;;;;;;;32.01;54.39;100662.44;5018372;28;66419;-32
2023/11/29 06:59:48;;;;;;;;;;;;;;;32.02;54.26;100655.13;5038839;28;70741;-32
2023/11/29 07:02:17;;;;;;;;;;;;;;;32.04;54.32;100659.25;5038276;28;66612;-34
2023/11/29 07:04:48;;;;;;;;;;;;;;;32.05;54.24;100650.06;5035203;28;71100;-34
2023/11/29 07:07:18;;;;;;;;;;;;;;;32.09;54.29;100649.59;5037936;28;66708;-32
2023/11/29 07:09:49;;;;;;;;;;;;;;;32.09;54.33;100644.16;5039292;28;69984;-34
2023/11/29 07:12:19;;;;;;;;;;;;;;;32.11;54.22;100642.03;5036589;28;66075;-33
2023/11/29 07:14:50;;;;;;;;;;;;;;;32.12;54.22;100639.06;5031319;28;70624;-32
2023/11/29 07:17:20;;;;;;;;;;;;;;;32.16;54.00;100647.59;5038607;28;65520;-34
2023/11/29 07:19:49;;;;;;;;;;;;;;;32.16;54.35;100650.31;5036420;28;70727;-33
2023/11/29 07:22:19;;;;;;;;;;;;;;;32.17;54.25;100641.91;5039096;28;65967;-33
2023/11/29 07:24:49;;;;;;;;;;;;;;;32.19;54.17;100638.97;5039452;28;69908;-33
2023/11/29 07:27:19;;;;;;;;;;;;;;;32.20;54.10;100641.44;5036805;28;66720;-34
2023/11/29 07:29:49;;;;;;;;;;;;;;;32.21;54.02;100637.69;5039241;28;70282;-32
2023/11/29 07:32:22;;;;;;;;;;;;;;;32.23;54.16;100635.56;5039208;28;65537;-33
2023/11/29 07:34:52;;;;;;;;;;;;;;;32.24;54.00;100641.81;5034652;28;69652;-34
2023/11/29 07:37:21;;;;;;;;;;;;;;;32.25;54.07;100635.31;5035797;28;66016;-34
2023/11/29 07:39:51;;;;;;;;;;;;;;;32.26;54.02;100632.38;5037004;28;69062;-31
2023/11/29 07:42:20;;;;;;;;;;;;;;;32.26;53.87;100628.81;5035905;28;66941;-33
2023/11/29 07:44:50;;;;;;;;;;;;;;;32.26;54.05;100634.25;5038388;28;69816;-33
2023/11/29 07:47:19;;;;;;;;;;;;;;;32.27;54.08;100630.50;5036287;28;66668;-33
2023/11/29 07:49:49;;;;;;;;;;;;;;;32.28;54.15;100627.53;5035144;28;69470;-33
2023/11/29 07:52:18;;;;;;;;;;;;;;;32.28;54.18;100629.41;5019111;28;65981;-34
2023/11/29 07:54:48;;;;;;;;;;;;;;;32.28;54.01;100626.72;5038321;28;70544;-33
2023/11/29 07:57:17;;;;;;;;;;;;;;;32.29;54.15;100628.38;5035988;28;67002;-32
2023/11/29 07:59:47;;;;;;;;;;;;;;;32.28;54.22;100632.97;5038012;28;69768;-32
2023/11/29 08:02:16;;;;;;;;;;;;;;;32.28;53.99;100632.97;5037430;28;65772;-33
2023/11/29 08:04:46;;;;;;;;;;;;;;;32.28;54.04;100632.97;5035958;28;70454;-33
2023/11/29 08:07:16;;;;;;;;;;;;;;;32.30;54.00;100634.63;5037299;28;66902;-33
2023/11/29 08:09:47;;;;;;;;;;;;;;;32.30;54.15;100629.19;5020562;28;69444;-34
2023/11/29 08:12:17;;;;;;;;;;;;;;;32.29;53.95;100639.22;5036447;28;66071;-34
2023/11/29 08:14:47;;;;;;;;;;;;;;;32.29;53.97;100628.38;5038905;28;70238;-33
2023/11/29 08:17:16;;;;;;;;;;;;;;;32.31;54.04;100628.94;5038582;28;65456;-33
2023/11/29 08:19:46;;;;;;;;;;;;;;;32.30;54.09;100635.44;5035511;28;70568;-32
2023/11/29 08:22:16;;;;;;;;;;;;;;;32.31;53.97;100631.66;5039291;28;66924;-32
2023/11/29 08:24:45;;;;;;;;;;;;;;;32.31;54.11;100631.66;5041360;28;70010;-32
2023/11/29 08:27:15;;;;;;;;;;;;;;;32.31;54.28;100639.81;5038822;28;66891;-32
2023/11/29 08:29:45;;;;;;;;;;;;;;;32.31;53.93;100642.50;5039834;28;71147;-33
2023/11/29 08:32:14;;;;;;;;;;;;;;;32.31;54.08;100656.09;5041691;28;67096;-32
2023/11/29 08:34:44;;;;;;;;;;;;;;;32.31;54.13;100653.38;5037512;28;70415;-34
2023/11/29 08:37:14;;;;;;;;;;;;;;;32.31;54.18;100653.38;5040704;28;65941;-33
2023/11/29 08:39:43;;;;;;;;;;;;;;;32.32;54.15;100646.91;5039698;28;69746;-33
2023/11/29 08:42:13;;;;;;;;;;;;;;;32.32;54.27;100649.63;5039489;28;66274;-33
2023/11/29 08:44:43;;;;;;;;;;;;;;;32.32;54.32;100657.75;5040504;28;70585;-34
2023/11/29 08:47:12;;;;;;;;;;;;;;;32.03;54.39;100611.47;5041174;28;65934;-33
2023/11/29 08:49:42;;;;;;;;;;;;;;;32.33;54.26;100662.13;5037385;28;69800;-32
2023/11/29 08:52:12;;;;;;;;;;;;;;;32.33;54.34;100661.28;5040761;28;66344;-34
2023/11/29 08:54:41;;;;;;;;;;;;;;;32.33;54.55;100672.97;5027991;28;70739;-34
2023/11/29 08:57:11;;;;;;;;;;;;;;;32.33;54.56;100656.69;5038726;28;67480;-33
2023/11/29 08:59:41;;;;;;;;;;;;;;;32.33;54.54;100667.53;5041229;28;70395;-33
2023/11/29 09:02:10;;;;;;;;;;;;;;;32.33;54.46;100677.59;5022587;28;67284;-32
2023/11/29 09:04:40;;;;;;;;;;;;;;;32.33;54.51;100685.72;5038687;28;70799;-33
2023/11/29 09:07:09;;;;;;;;;;;;;;;32.33;54.57;100689.25;5039991;28;66839;-32
2023/11/29 09:09:40;;;;;;;;;;;;;;;32.33;54.73;100700.13;5040669;28;70382;-33
2023/11/29 09:12:11;;;;;;;;;;;;;;;32.33;54.73;100697.41;5038401;28;66867;-32
2023/11/29 09:14:41;;;;;;;;;;;;;;;32.34;54.90;100693.63;5027935;28;70790;-33
2023/11/29 09:17:11;;;;;;;;;;;;;;;31.91;59.32;100697.44;5038241;28;66532;-34
2023/11/29 09:19:41;;;;;;;;;;;;;;;31.77;61.34;100704.09;5034345;28;69756;-33
2023/11/29 09:22:10;;;;;;;;;;;;;;;31.69;61.77;100707.13;5038359;28;66876;-40
2023/11/29 09:24:40;;;;;;;;;;;;;;;31.63;62.51;100702.63;5039289;28;70744;-34
2023/11/29 09:27:11;;;;;;;;;;;;;;;31.63;62.84;100710.78;5037282;28;66617;-37
2023/11/29 09:29:41;;;;;;;;;;;;;;;31.61;63.21;100705.56;5039225;28;70102;-33
2023/11/29 09:32:11;;;;;;;;;;;;;;;31.86;61.13;100710.03;5038935;28;66616;-33
2023/11/29 09:34:40;;;;;;;;;;;;;;;31.99;60.20;100712.56;5037486;28;69905;-33
2023/11/29 09:37:10;;;;;;;;;;;;;;;32.06;59.97;100721.41;5040103;28;65389;-32
2023/11/29 09:39:40;;;;;;;;;;;;;;;32.12;59.75;100733.22;5040011;28;69780;-33
2023/11/29 09:42:10;;;;;;;;;;;;;;;32.17;59.64;100722.50;5038007;28;66635;-33
2023/11/29 09:44:39;;;;;;;;;;;;;;;32.20;59.41;100730.19;5039253;28;70118;-33
2023/11/29 09:47:10;;;;;;;;;;;;;;;32.21;59.44;100735.41;5028023;28;65156;-34
2023/11/29 09:49:39;;;;;;;;;;;;;;;32.23;59.35;100732.44;5036753;28;70407;-33
2023/11/29 09:52:10;;;;;;;;;;;;;;;32.23;59.77;100736.00;5039347;28;65836;-33
2023/11/29 09:54:40;;;;;;;;;;;;;;;32.24;59.70;100734.09;5038644;28;69818;-34
2023/11/29 09:57:09;;;;;;;;;;;;;;;32.25;59.61;100752.03;5038539;28;66030;-33
2023/11/29 09:59:39;;;;;;;;;;;;;;;32.25;59.66;100752.84;5040045;28;70184;-33
2023/11/29 10:02:11;;;;;;;;;;;;;;;32.25;59.58;100746.59;5039745;28;65933;-34
2023/11/29 10:04:42;;;;;;;;;;;;;;;32.25;59.86;100750.13;5037873;28;69861;-33
2023/11/29 10:07:11;;;;;;;;;;;;;;;32.26;59.78;100750.97;5038720;28;65438;-33
2023/11/29 10:09:41;;;;;;;;;;;;;;;32.24;59.81;100750.38;5040524;28;70775;-32
2023/11/29 10:12:12;;;;;;;;;;;;;;;32.25;59.98;100747.41;5039349;28;65604;-32
2023/11/29 10:14:42;;;;;;;;;;;;;;;32.17;60.84;100749.66;5041233;28;69800;-33
2023/11/29 10:17:16;;;;;;;;;;;;;;;31.91;62.24;100750.84;5039739;28;66657;-33
2023/11/29 10:19:55;;;;;;;;;;;;;;;31.79;63.36;100750.81;5040073;28;70658;-34
2023/11/29 10:22:25;;;;;;;;;;;;;;;31.76;63.67;100759.38;5039222;28;65855;-32
2023/11/29 10:24:54;;;;;;;;;;;;;;;31.66;63.96;100764.53;5041146;28;70411;-35
2023/11/29 10:27:24;;;;;;;;;;;;;;;31.64;64.44;100769.34;5042332;28;66719;-33
2023/11/29 10:29:53;;;;;;;;;;;;;;;31.60;64.59;100775.25;5039705;28;70515;-35
2023/11/29 10:32:23;;;;;;;;;;;;;;;31.62;64.53;100775.00;5042498;28;66701;-33
2023/11/29 10:34:54;;;;;;;;;;;;;;;31.58;64.77;100782.75;5043299;28;70378;-33
2023/11/29 10:37:24;;;;;;;;;;;;;;;31.59;64.89;100787.16;5043422;28;65413;-33
2023/11/29 10:39:54;;;;;;;;;;;;;;;31.61;65.03;100790.44;5037993;28;70139;-34
2023/11/29 10:42:24;;;;;;;;;;;;;;;31.61;65.31;100801.28;5040461;28;66556;-34
2023/11/29 10:44:53;;;;;;;;;;;;;;;31.59;65.44;100798.00;5038388;28;70603;-34
2023/11/29 10:47:26;;;;;;;;;;;;;;;31.60;65.52;100806.94;5039847;28;66199;-34
2023/11/29 10:49:59;;;;;;;;;;;;;;;31.58;65.82;100807.16;5042322;28;70755;-36
2023/11/29 10:52:29;;;;;;;;;;;;;;;31.60;66.04;100804.25;5041429;28;66939;-34
2023/11/29 10:54:58;;;;;;;;;;;;;;;31.60;66.34;100807.78;5039313;28;69635;-34
2023/11/29 10:57:35;;;;;;;;;;;;;;;31.60;66.26;100812.38;5040613;28;67336;-34
2023/11/29 11:00:07;;;;;;;;;;;;;;;31.61;66.49;100817.56;5036535;28;70142;-33
2023/11/29 11:02:41;;;;;;;;;;;;;;;31.61;66.31;100827.56;5038463;28;67041;-33
2023/11/29 11:05:11;;;;;;;;;;;;;;;31.60;66.50;100826.75;5038875;28;70694;-33
2023/11/29 11:07:43;;;;;;;;;;;;;;;31.61;66.39;100828.41;5039138;28;66789;-34
2023/11/29 11:10:23;;;;;;;;;;;;;;;31.58;66.58;100831.56;5043073;28;70174;-35
2023/11/29 11:12:56;;;;;;;;;;;;;;;31.58;66.64;100837.00;5040759;28;66029;-34
2023/11/29 11:15:28;;;;;;;;;;;;;;;31.56;67.00;100841.81;5037345;28;70517;-35
2023/11/29 11:18:03;;;;;;;;;;;;;;;31.57;67.15;100846.19;5042296;28;66428;-32
2023/11/29 11:20:50;;;;;;;;;;;;;;;31.59;67.53;100852.22;5040292;28;69581;-33
2023/11/29 11:23:24;;;;;;;;;;;;;;;31.56;68.64;100852.66;5053109;28;67378;-33
2023/11/29 11:25:58;;;;;;;;;;;;;;;31.57;68.87;100854.31;5042566;28;69539;-34
2023/11/29 11:28:32;;;;;;;;;;;;;;;31.57;69.03;100853.50;5042920;28;66738;-33
2023/11/29 11:31:06;;;;;;;;;;;;;;;31.65;68.29;100857.78;5039824;28;70592;-33
2023/11/29 11:33:51;;;;;;;;;;;;;;;31.80;66.63;100869.09;5037786;28;66576;-34
2023/11/29 11:36:21;;;;;;;;;;;;;;;31.88;66.04;100882.34;5040382;28;69708;-34
2023/11/29 11:38:51;;;;;;;;;;;;;;;31.94;66.16;100891.47;5040469;28;67047;-34
2023/11/29 11:41:21;;;;;;;;;;;;;;;31.97;66.04;100891.84;5040079;28;69944;-35
2023/11/29 11:43:51;;;;;;;;;;;;;;;32.01;65.94;100894.94;5041086;28;65238;-35
2023/11/29 11:46:21;;;;;;;;;;;;;;;32.04;65.86;100900.75;5039954;28;71687;-35
2023/11/29 11:48:52;;;;;;;;;;;;;;;32.05;65.83;100905.09;5040683;28;66000;-32
2023/11/29 11:51:22;;;;;;;;;;;;;;;32.08;65.88;100903.81;5010319;28;70690;-33
2023/11/29 11:53:52;;;;;;;;;;;;;;;32.09;65.98;100910.06;5039837;28;66881;-34
2023/11/29 11:56:22;;;;;;;;;;;;;;;32.09;65.98;100916.31;5022468;28;69762;-34
2023/11/29 11:58:51;;;;;;;;;;;;;;;32.11;66.07;100913.41;5043901;28;67036;-33
2023/11/29 12:01:21;;;;;;;;;;;;;;;32.10;65.83;100925.31;5043706;28;69938;-34
2023/11/29 12:03:51;;;;;;;;;;;;;;;32.10;65.83;100936.19;5043878;28;66401;-34
2023/11/29 12:06:21;;;;;;;;;;;;;;;32.11;65.98;100945.97;5043208;28;69873;-34
2023/11/29 12:08:50;;;;;;;;;;;;;;;32.10;65.68;100955.16;5042689;28;65534;-34
2023/11/29 12:11:26;;;;;;;;;;;;;;;32.11;65.65;100951.38;5043733;28;70152;-34
2023/11/29 12:13:57;;;;;;;;;;;;;;;32.10;65.84;100960.59;5043138;28;66105;-34
2023/11/29 12:16:27;;;;;;;;;;;;;;;32.08;65.93;100958.09;5043028;28;70758;-34
2023/11/29 12:18:57;;;;;;;;;;;;;;;32.08;65.83;100960.00;5042995;28;66021;-33
2023/11/29 12:21:28;;;;;;;;;;;;;;;32.08;65.83;100962.69;5028814;28;70415;-35
2023/11/29 12:24:04;;;;;;;;;;;;;;;32.08;65.65;100962.69;5042931;28;66113;-37
2023/11/29 12:26:34;;;;;;;;;;;;;;;32.07;65.73;100964.59;5059050;28;69864;-33
2023/11/29 12:29:04;;;;;;;;;;;;;;;32.06;65.60;100979.19;5042342;28;66097;-34
2023/11/29 12:31:36;;;;;;;;;;;;;;;32.05;65.49;100975.66;5042891;28;69371;-33
2023/11/29 12:34:06;;;;;;;;;;;;;;;32.05;65.99;100986.50;5019132;28;67005;-38
2023/11/29 12:36:36;;;;;;;;;;;;;;;32.05;65.48;100994.66;5010102;28;69691;-34
2023/11/29 12:39:05;;;;;;;;;;;;;;;31.89;67.98;100995.22;5020811;28;66875;-34
2023/11/29 12:41:35;;;;;;;;;;;;;;;31.71;69.27;101001.44;5022718;28;70423;-33
2023/11/29 12:44:09;;;;;;;;;;;;;;;31.60;70.19;101016.56;5017909;28;66326;-33
2023/11/29 12:46:39;;;;;;;;;;;;;;;31.54;70.81;101009.31;5026262;28;70764;-34
2023/11/29 12:49:09;;;;;;;;;;;;;;;31.47;70.95;101005.81;5022468;28;66533;-33
2023/11/29 12:51:38;;;;;;;;;;;;;;;31.49;71.79;101009.16;5024471;28;69509;-35